Terminal Aerodrome Forecast
Issued by NWS

Home | Current Version | Previous Version | Text Only | Print | Product List | Glossary On
Versions: 1 2 3 4 5 6 7 8 9 10 11 12 13
000
FTUS43 KEAX 222300
TAFSTJ
TAF
KSTJ 222325Z 2300/2324 35003KT P6SM SKC
     FM230100 03010KT P6SM SCT050
     FM230500 03005KT P6SM SCT050
      TEMPO 2310/2313 5SM BR FEW008
     FM231400 02010KT P6SM FEW120=

USA.gov is the U.S. government's official web portal to all federal, state and local government web resources and services.